Time;durP1;ratioP1;P1;durP2;ratioP2;P2;SDS_P1;SDS_P2;PMS_P1;PMS_P2;Temp;Humidity;BMP_temperature;BMP_pressure;BME280_temperature;BME280_humidity;BME280_pressure;Samples;Min_cycle;Max_cycle;Signal;HPM_P1;HPM_P2
2022/05/09 00:01:59;;;;;;;10.53;3.60;;;;;;;4.57;nan;102168.53;4978653;28;20056;-79
2022/05/09 00:04:27;;;;;;;8.03;3.53;;;;;;;4.56;nan;102173.72;4957283;28;20050;-80
2022/05/09 00:06:55;;;;;;;14.37;3.93;;;;;;;4.48;nan;102169.16;4974535;28;20030;-80
2022/05/09 00:09:23;;;;;;;7.07;3.00;;;;;;;4.38;nan;102180.22;5005504;28;20548;-79
2022/05/09 00:11:49;;;;;;;5.20;3.07;;;;;;;4.32;nan;102181.75;4970404;28;20035;-79
2022/05/09 00:14:16;;;;;;;6.77;3.03;;;;;;;4.29;nan;102174.72;4972605;28;20030;-78
2022/05/09 00:16:43;;;;;;;9.40;3.47;;;;;;;4.25;nan;102178.06;4991904;28;20038;-81
2022/05/09 00:19:13;;;;;;;8.90;3.47;;;;;;;4.21;nan;102182.34;4955567;28;20487;-79
2022/05/09 00:21:41;;;;;;;7.60;2.87;;;;;;;4.27;nan;102188.56;4991177;28;20056;-79
2022/05/09 00:24:12;;;;;;;10.80;4.27;;;;;;;4.28;nan;102187.72;4973314;28;20503;-79
2022/05/09 00:26:39;;;;;;;10.47;4.20;;;;;;;4.31;nan;102188.72;4973157;28;20040;-83
2022/05/09 00:29:13;;;;;;;10.73;3.77;;;;;;;4.29;nan;102200.88;5001678;28;20040;-79
2022/05/09 00:31:49;;;;;;;9.90;4.23;;;;;;;4.18;nan;102195.31;5003057;28;20030;-79
2022/05/09 00:34:21;;;;;;;10.23;3.40;;;;;;;4.09;nan;102192.41;4955299;28;20041;-80
2022/05/09 00:36:49;;;;;;;14.33;4.03;;;;;;;4.08;nan;102193.25;4958149;28;20038;-81
2022/05/09 00:39:16;;;;;;;14.80;4.87;;;;;;;4.09;nan;102199.38;4971132;28;20039;-82
2022/05/09 00:41:44;;;;;;;11.23;4.27;;;;;;;3.98;nan;102201.66;4988653;28;20026;-79
2022/05/09 00:44:17;;;;;;;11.37;4.37;;;;;;;3.95;nan;102199.84;4971678;28;20545;-79
2022/05/09 00:46:51;;;;;;;10.37;3.70;;;;;;;3.90;nan;102197.94;4997335;23;20041;-79
2022/05/09 00:49:18;;;;;;;8.45;3.42;;;;;;;3.92;nan;102196.25;4977951;28;20213;-78
2022/05/09 00:52:06;;;;;;;4.83;2.97;;;;;;;3.83;nan;102196.84;5014051;28;20044;-79
2022/05/09 00:54:43;;;;;;;8.53;3.63;;;;;;;3.76;nan;102197.47;4998817;28;20046;-78
2022/05/09 00:57:18;;;;;;;13.37;4.90;;;;;;;3.75;nan;102202.66;5008533;28;20554;-77
2022/05/09 00:59:48;;;;;;;9.10;3.50;;;;;;;3.72;nan;102203.47;5013689;28;20086;-78
2022/05/09 01:02:15;;;;;;;9.63;3.60;;;;;;;3.68;nan;102198.97;4996007;28;20137;-77
2022/05/09 01:04:51;;;;;;;14.53;3.80;;;;;;;3.71;nan;102201.69;4996696;28;20129;-79
2022/05/09 01:07:18;;;;;;;12.07;5.10;;;;;;;3.82;nan;102199.41;4983811;28;20120;-79
2022/05/09 01:09:46;;;;;;;10.93;3.83;;;;;;;4.00;nan;102199.09;4986632;28;20114;-79
2022/05/09 01:12:15;;;;;;;15.30;6.97;;;;;;;4.15;nan;102199.56;5001041;28;20087;-77
2022/05/09 01:14:42;;;;;;;31.40;12.90;;;;;;;4.62;nan;102203.56;5000483;28;20156;-79
2022/05/09 01:17:09;;;;;;;20.67;8.23;;;;;;;4.68;nan;102202.84;5003189;28;20118;-76
2022/05/09 01:19:39;;;;;;;25.57;10.93;;;;;;;4.84;nan;102205.06;5031100;28;20563;-80
2022/05/09 01:22:17;;;;;;;22.00;8.23;;;;;;;4.93;nan;102200.06;4958836;28;20118;-77
2022/05/09 01:24:44;;;;;;;31.13;9.93;;;;;;;5.15;nan;102201.53;5015743;28;20121;-79
2022/05/09 01:27:11;;;;;;;22.97;9.53;;;;;;;5.17;nan;102197.22;4970435;28;20121;-79
2022/05/09 01:29:47;;;;;;;29.40;14.50;;;;;;;5.36;nan;102191.59;5003731;28;20129;-79
2022/05/09 01:32:17;;;;;;;28.07;13.17;;;;;;;5.50;nan;102198.94;5001393;28;20091;-79
2022/05/09 01:34:47;;;;;;;34.03;15.43;;;;;;;5.74;nan;102193.41;4966795;28;20129;-78
2022/05/09 01:37:14;;;;;;;44.30;15.67;;;;;;;5.85;nan;102202.41;4993090;28;20129;-79
2022/05/09 01:39:41;;;;;;;31.93;14.70;;;;;;;5.95;nan;102195.66;5021861;28;20129;-79
2022/05/09 01:42:09;;;;;;;29.37;13.90;;;;;;;5.97;nan;102192.25;5002898;28;20133;-79
2022/05/09 01:44:37;;;;;;;37.57;15.87;;;;;;;6.07;nan;102199.47;4981061;28;20045;-79
2022/05/09 01:49:50;;;;;;;31.40;15.63;;;;;;;6.23;nan;102205.06;5014933;28;20116;-77
2022/05/09 01:52:18;;;;;;;33.60;15.13;;;;;;;6.23;nan;102200.69;5018484;28;20031;-78
2022/05/09 01:54:45;;;;;;;37.83;16.67;;;;;;;6.26;nan;102202.50;5012503;28;20044;-78
2022/05/09 01:57:12;;;;;;;38.10;15.53;;;;;;;6.20;nan;102195.38;4985688;28;20112;-79
2022/05/09 01:59:40;;;;;;;32.90;16.07;;;;;;;6.31;nan;102200.88;5000856;28;20132;-79
2022/05/09 02:02:13;;;;;;;32.00;15.47;;;;;;;6.41;nan;102192.34;5000896;28;20082;-78
2022/05/09 02:04:41;;;;;;;32.03;16.48;;;;;;;6.42;nan;102199.34;4995159;28;20113;-78
2022/05/09 02:07:13;;;;;;;31.93;15.90;;;;;;;6.42;nan;102194.09;5002547;28;20182;-78
2022/05/09 02:09:41;;;;;;;31.43;15.97;;;;;;;6.43;nan;102198.50;4986225;28;20105;-79
2022/05/09 02:12:08;;;;;;;30.20;15.77;;;;;;;6.48;nan;102200.38;5001218;28;20030;-78
2022/05/09 02:14:36;;;;;;;28.57;15.00;;;;;;;6.59;nan;102207.56;4983707;28;20059;-79
2022/05/09 02:17:03;;;;;;;30.17;16.17;;;;;;;6.58;nan;102209.31;5003293;28;20113;-78
2022/05/09 02:19:30;;;;;;;29.83;15.27;;;;;;;6.47;nan;102202.94;5000782;28;20044;-78
2022/05/09 02:21:56;;;;;;;33.47;17.17;;;;;;;6.57;nan;102202.31;4978176;28;20109;-79
2022/05/09 02:24:23;;;;;;;30.63;14.77;;;;;;;6.58;nan;102211.94;4998027;28;20037;-79
2022/05/09 02:26:50;;;;;;;28.60;15.30;;;;;;;6.65;nan;102208.59;4974883;28;20120;-79
2022/05/09 02:29:17;;;;;;;31.83;16.07;;;;;;;6.72;nan;102217.47;4998146;28;21654;-78
2022/05/09 02:31:44;;;;;;;33.63;14.67;;;;;;;6.74;nan;102215.78;5001068;28;20048;-78
2022/05/09 02:34:12;;;;;;;31.40;15.07;;;;;;;6.75;nan;102212.28;4998698;28;20112;-77
2022/05/09 02:36:39;;;;;;;26.93;13.90;;;;;;;6.72;nan;102220.09;5019090;28;20105;-79
2022/05/09 02:39:06;;;;;;;25.03;13.93;;;;;;;6.68;nan;102226.16;4984378;28;20052;-79
2022/05/09 02:41:33;;;;;;;22.37;13.27;;;;;;;6.66;nan;102218.25;5002287;28;20086;-76
2022/05/09 02:44:00;;;;;;;27.00;13.80;;;;;;;6.73;nan;102220.16;5016877;28;20029;-79
2022/05/09 02:46:27;;;;;;;23.70;13.73;;;;;;;6.80;nan;102223.75;5015926;28;20121;-79
2022/05/09 02:48:55;;;;;;;24.40;14.30;;;;;;;6.87;nan;102235.28;4975779;28;20626;-78
2022/05/09 02:51:22;;;;;;;20.40;12.83;;;;;;;6.78;nan;102238.59;4993048;28;20817;-79
2022/05/09 02:53:49;;;;;;;22.97;13.47;;;;;;;6.71;nan;102231.44;4976194;28;20126;-79
2022/05/09 02:56:16;;;;;;;22.33;13.47;;;;;;;6.75;nan;102228.06;4985744;28;20117;-77
2022/05/09 02:58:43;;;;;;;29.63;14.13;;;;;;;6.78;nan;102228.97;4999228;28;20034;-79
2022/05/09 03:01:09;;;;;;;25.37;14.50;;;;;;;6.79;nan;102224.63;4994334;28;20125;-80
2022/05/09 03:06:22;;;;;;;23.53;13.50;;;;;;;6.71;nan;102229.72;5005198;28;20109;-79
2022/05/09 03:08:49;;;;;;;26.50;14.70;;;;;;;6.66;nan;102238.38;5003902;28;20534;-79
2022/05/09 03:11:16;;;;;;;29.50;15.00;;;;;;;6.72;nan;102236.72;4980151;28;20211;-79
2022/05/09 03:13:43;;;;;;;29.03;15.00;;;;;;;6.71;nan;102232.34;4985265;28;20091;-79
2022/05/09 03:16:10;;;;;;;25.23;14.70;;;;;;;6.83;nan;102238.72;4998619;28;20103;-79
2022/05/09 03:18:37;;;;;;;25.97;14.27;;;;;;;6.78;nan;102235.97;5002209;28;20113;-79
2022/05/09 03:21:04;;;;;;;25.70;15.47;;;;;;;6.86;nan;102236.13;4987396;28;20102;-79
2022/05/09 03:23:32;;;;;;;22.33;12.97;;;;;;;6.76;nan;102240.31;4995506;28;20090;-80
2022/05/09 03:25:58;;;;;;;23.33;13.63;;;;;;;6.88;nan;102234.41;5015741;28;20114;-77
2022/05/09 03:28:26;;;;;;;22.90;13.80;;;;;;;6.82;nan;102235.22;5020369;28;20134;-79
2022/05/09 03:30:56;;;;;;;29.33;14.17;;;;;;;6.88;nan;102235.31;5002274;28;20081;-78
2022/05/09 03:33:27;;;;;;;23.83;13.50;;;;;;;6.91;nan;102239.75;4986061;28;20107;-78
2022/05/09 03:35:57;;;;;;;26.97;14.57;;;;;;;6.89;nan;102242.31;5002872;28;20128;-79
2022/05/09 03:38:23;;;;;;;23.87;13.60;;;;;;;6.82;nan;102242.19;5002446;28;20108;-80
2022/05/09 03:40:50;;;;;;;28.93;15.03;;;;;;;6.87;nan;102243.16;4996128;28;20109;-79
2022/05/09 03:43:17;;;;;;;27.20;15.77;;;;;;;6.96;nan;102249.47;5024053;28;20101;-79
2022/05/09 03:45:46;;;;;;;23.73;15.43;;;;;;;6.99;nan;102244.31;5019314;28;20129;-79
2022/05/09 03:48:13;;;;;;;103.90;25.20;;;;;;;6.98;nan;102241.66;4982427;28;20125;-79
2022/05/09 03:50:40;;;;;;;38.23;16.70;;;;;;;7.00;nan;102242.56;5002444;28;20090;-77
2022/05/09 03:53:07;;;;;;;35.07;16.57;;;;;;;7.08;nan;102246.22;4997474;28;20031;-78
2022/05/09 03:55:34;;;;;;;33.17;15.57;;;;;;;6.98;nan;102242.53;4989456;28;20105;-77
2022/05/09 03:58:02;;;;;;;27.90;15.00;;;;;;;7.05;nan;102244.41;5019355;28;20097;-80
2022/05/09 04:00:32;;;;;;;24.27;14.13;;;;;;;7.13;nan;102241.03;5023151;28;20125;-78
2022/05/09 04:03:00;;;;;;;25.33;14.50;;;;;;;7.17;nan;102242.88;5019030;28;20206;-80
2022/05/09 04:05:34;;;;;;;23.93;13.60;;;;;;;7.12;nan;102242.78;5002700;28;20101;-80
2022/05/09 04:08:03;;;;;;;27.40;14.10;;;;;;;7.14;nan;102245.44;5001659;28;20109;-79
2022/05/09 04:10:32;;;;;;;26.17;14.43;;;;;;;7.17;nan;102245.50;4986250;28;20113;-79
2022/05/09 04:12:59;;;;;;;23.90;13.70;;;;;;;7.11;nan;102253.28;4985237;28;20026;-80
2022/05/09 04:18:16;;;;;;;34.77;16.33;;;;;;;7.25;nan;102244.78;5000200;28;20157;-79
2022/05/09 04:20:46;;;;;;;25.93;14.40;;;;;;;7.31;nan;102247.53;4993825;28;20040;-76
2022/05/09 04:23:13;;;;;;;25.83;14.33;;;;;;;7.37;nan;102249.38;4987948;28;20365;-77
2022/05/09 04:25:40;;;;;;;28.93;15.07;;;;;;;7.38;nan;102248.50;4992960;28;20044;-77
2022/05/09 04:28:12;;;;;;;24.33;13.03;;;;;;;7.35;nan;102237.97;4992229;28;20052;-77
2022/05/09 04:30:39;;;;;;;25.10;13.60;;;;;;;7.41;nan;102242.44;4992709;28;20048;-77
2022/05/09 04:33:07;;;;;;;23.37;13.27;;;;;;;7.43;nan;102249.50;4992366;28;20045;-77
2022/05/09 04:35:36;;;;;;;24.63;13.73;;;;;;;7.48;nan;102246.94;4993823;28;20064;-77
2022/05/09 04:38:03;;;;;;;23.83;14.30;;;;;;;7.57;nan;102245.38;4975095;28;20037;-77
2022/05/09 04:40:32;;;;;;;25.77;13.47;;;;;;;7.63;nan;102247.19;4990283;28;20042;-77
2022/05/09 04:43:00;;;;;;;25.20;15.07;;;;;;;7.65;nan;102253.41;4991591;28;20038;-77
2022/05/09 04:45:28;;;;;;;25.70;14.07;;;;;;;7.63;nan;102253.34;4969296;28;20038;-77
2022/05/09 04:47:56;;;;;;;23.63;13.70;;;;;;;7.71;nan;102249.97;4983492;28;20042;-76
2022/05/09 04:50:24;;;;;;;27.57;14.80;;;;;;;7.84;nan;102255.47;4992531;28;20038;-77
2022/05/09 04:52:51;;;;;;;25.57;15.00;;;;;;;7.84;nan;102249.31;4981907;28;20026;-77
2022/05/09 04:55:18;;;;;;;23.17;13.13;;;;;;;7.87;nan;102254.63;4987770;28;20053;-77
2022/05/09 04:57:48;;;;;;;37.37;14.57;;;;;;;7.90;nan;102247.69;4975580;28;20049;-78
2022/05/09 05:00:17;;;;;;;36.13;14.80;;;;;;;8.03;nan;102253.13;4991780;28;20054;-78
2022/05/09 05:02:44;;;;;;;23.77;13.43;;;;;;;8.07;nan;102252.28;4987143;28;20051;-77
2022/05/09 05:05:11;;;;;;;21.70;11.60;;;;;;;8.14;nan;102254.16;4993210;28;20030;-78
2022/05/09 05:07:38;;;;;;;18.70;11.97;;;;;;;8.08;nan;102252.34;5008835;28;20052;-78
2022/05/09 05:10:06;;;;;;;20.67;12.20;;;;;;;8.01;nan;102254.84;4980093;28;20045;-78
2022/05/09 05:12:33;;;;;;;23.60;13.17;;;;;;;8.02;nan;102257.50;4988009;28;20052;-78
2022/05/09 05:15:00;;;;;;;18.13;11.23;;;;;;;7.94;nan;102258.25;4991837;28;20045;-78
2022/05/09 05:17:27;;;;;;;21.03;11.97;;;;;;;7.90;nan;102257.28;5003953;28;20041;-77
2022/05/09 05:19:54;;;;;;;18.77;11.37;;;;;;;7.99;nan;102254.84;4972739;28;20044;-78
2022/05/09 05:22:21;;;;;;;19.97;11.63;;;;;;;8.01;nan;102257.47;5008591;28;20369;-78
2022/05/09 05:24:52;;;;;;;18.50;11.17;;;;;;;8.02;nan;102260.13;4992506;28;20041;-78
2022/05/09 05:27:23;;;;;;;19.00;10.53;;;;;;;8.10;nan;102265.50;4991997;28;20040;-77
2022/05/09 05:29:50;;;;;;;19.30;11.33;;;;;;;8.12;nan;102261.16;4976641;28;20048;-78
2022/05/09 05:32:19;;;;;;;18.80;10.43;;;;;;;8.26;nan;102266.63;4991032;28;20487;-78
2022/05/09 05:34:47;;;;;;;16.30;9.93;;;;;;;8.34;nan;102259.72;4992023;28;20425;-77
2022/05/09 05:37:16;;;;;;;15.13;9.90;;;;;;;8.36;nan;102265.94;4973360;28;20046;-77
2022/05/09 05:39:44;;;;;;;15.67;9.27;;;;;;;8.26;nan;102264.00;4992380;28;20046;-77
2022/05/09 05:42:12;;;;;;;16.30;9.63;;;;;;;8.32;nan;102264.94;5007309;28;20041;-77
2022/05/09 05:44:39;;;;;;;16.03;9.90;;;;;;;8.33;nan;102261.47;4983854;28;20038;-78
2022/05/09 05:47:08;;;;;;;13.60;8.93;;;;;;;8.35;nan;102258.91;5009490;28;20041;-77
2022/05/09 05:49:36;;;;;;;13.70;8.87;;;;;;;8.56;nan;102263.56;4991565;28;20053;-78
2022/05/09 05:52:03;;;;;;;16.40;7.83;;;;;;;8.75;nan;102270.88;4991331;28;20038;-78
2022/05/09 05:54:32;;;;;;;13.63;9.27;;;;;;;8.84;nan;102259.56;4991491;28;20041;-77
2022/05/09 05:56:58;;;;;;;13.13;8.07;;;;;;;8.87;nan;102259.59;4993164;28;20033;-78
2022/05/09 05:59:25;;;;;;;12.07;8.07;;;;;;;9.18;nan;102266.09;5008487;28;20037;-78
2022/05/09 06:01:53;;;;;;;13.57;8.30;;;;;;;9.40;nan;102262.78;4992213;28;20041;-78
2022/05/09 06:04:20;;;;;;;12.13;8.10;;;;;;;9.49;nan;102259.38;4990247;28;20041;-77
2022/05/09 06:06:47;;;;;;;12.23;7.80;;;;;;;9.59;nan;102267.41;5025262;28;20048;-77
2022/05/09 06:09:15;;;;;;;13.90;8.13;;;;;;;9.86;nan;102261.47;5007824;28;20060;-76
2022/05/09 06:11:47;;;;;;;9.25;7.15;;;;;;;10.02;nan;102267.75;5007613;28;20045;-77
2022/05/09 06:14:14;;;;;;;12.75;7.13;;;;;;;10.27;nan;102266.22;4989301;28;20038;-78
2022/05/09 06:16:42;;;;;;;10.52;6.97;;;;;;;10.81;nan;102264.72;5022710;28;20084;-78
2022/05/09 06:19:09;;;;;;;11.40;7.53;;;;;;;11.18;nan;102272.75;4994928;28;20041;-77
2022/05/09 06:21:37;;;;;;;9.65;6.70;;;;;;;11.17;nan;102263.06;5028239;28;20037;-77
2022/05/09 06:24:05;;;;;;;14.07;6.65;;;;;;;11.73;nan;102267.56;5026985;28;20038;-78
2022/05/09 06:26:34;;;;;;;10.32;6.60;;;;;;;12.14;nan;102269.38;5023272;28;20040;-78
2022/05/09 06:29:06;;;;;;;10.50;6.60;;;;;;;12.52;nan;102266.63;4972212;28;20034;-76
2022/05/09 06:31:34;;;;;;;10.65;6.25;;;;;;;12.74;nan;102270.97;4988381;28;20046;-78
2022/05/09 06:34:02;;;;;;;9.35;7.38;;;;;;;12.77;nan;102270.94;5010637;28;20042;-77
2022/05/09 06:36:34;;;;;;;9.35;6.20;;;;;;;13.09;nan;102272.59;4994794;28;20512;-77
2022/05/09 06:39:02;;;;;;;8.38;5.57;;;;;;;13.35;nan;102265.38;5012886;28;20041;-77
2022/05/09 06:41:29;;;;;;;9.52;5.57;;;;;;;13.13;nan;102269.03;4997628;28;20034;-77
2022/05/09 06:43:56;;;;;;;10.30;6.03;;;;;;;13.39;nan;102264.50;4977324;28;20363;-77
2022/05/09 06:46:23;;;;;;;10.73;5.82;;;;;;;13.65;nan;102266.09;5013083;28;20406;-77
2022/05/09 06:48:50;;;;;;;8.07;5.70;;;;;;;13.48;nan;102260.91;5039421;23;20106;-80
2022/05/09 06:51:18;;;;;;;195.15;26.35;;;;;;;14.02;nan;102259.56;5018948;28;20072;-80
2022/05/09 06:53:45;;;;;;;9.05;6.05;;;;;;;14.13;nan;102262.13;5017470;28;20050;-80
2022/05/09 06:56:12;;;;;;;9.27;5.70;;;;;;;14.09;nan;102263.91;5016458;28;20070;-81
2022/05/09 06:58:39;;;;;;;7.53;4.97;;;;;;;14.29;nan;102262.84;5012441;28;20069;-81
2022/05/09 07:01:18;;;;;;;6.95;5.80;;;;;;;14.43;nan;102273.34;5029635;28;20062;-81
2022/05/09 07:03:47;;;;;;;9.75;6.07;;;;;;;14.46;nan;102270.66;4998150;28;20110;-81
2022/05/09 07:06:16;;;;;;;6.65;4.97;;;;;;;14.78;nan;102270.31;5013177;28;20057;-81
2022/05/09 07:08:43;;;;;;;7.13;4.72;;;;;;;15.26;nan;102267.91;4980900;28;20114;-81
2022/05/09 07:11:11;;;;;;;6.32;4.90;;;;;;;15.87;nan;102269.63;4996963;28;20068;-81
2022/05/09 07:13:40;;;;;;;6.55;4.80;;;;;;;16.10;nan;102271.91;4996884;28;20062;-81
2022/05/09 07:16:08;;;;;;;9.80;5.25;;;;;;;15.53;nan;102271.94;4999679;28;20101;-80
2022/05/09 07:18:36;;;;;;;7.22;5.13;;;;;;;15.51;nan;102268.41;5005304;28;20526;-81
2022/05/09 07:21:03;;;;;;;11.18;5.65;;;;;;;15.93;nan;102262.44;5012808;28;20080;-80
2022/05/09 07:23:30;;;;;;;5.20;4.38;;;;;;;16.31;nan;102277.75;5011865;28;20070;-80
2022/05/09 07:25:57;;;;;;;5.22;4.50;;;;;;;16.18;nan;102267.31;5016203;28;20089;-81
2022/05/09 07:28:26;;;;;;;6.18;4.40;;;;;;;16.57;nan;102257.69;4997345;28;20033;-81
2022/05/09 07:30:54;;;;;;;6.45;4.72;;;;;;;16.68;nan;102260.16;5015002;28;20469;-81
2022/05/09 07:33:22;;;;;;;9.88;4.88;;;;;;;17.04;nan;102263.84;4996459;28;20514;-80
2022/05/09 07:35:49;;;;;;;6.80;4.05;;;;;;;16.44;nan;102264.16;4998223;28;20041;-81
2022/05/09 07:38:16;;;;;;;5.47;4.40;;;;;;;16.36;nan;102264.31;4981347;28;20046;-80
2022/05/09 07:40:45;;;;;;;7.40;4.50;;;;;;;16.26;nan;102265.41;4964825;28;20384;-80
2022/05/09 07:43:15;;;;;;;7.13;4.97;;;;;;;16.25;nan;102264.53;4995237;28;20036;-80
2022/05/09 07:45:43;;;;;;;6.20;3.92;;;;;;;16.83;nan;102252.75;4981350;28;20445;-81
2022/05/09 07:48:11;;;;;;;6.63;4.85;;;;;;;17.36;nan;102250.66;4996184;28;20038;-81
2022/05/09 07:50:38;;;;;;;7.53;4.22;;;;;;;17.80;nan;102250.53;4996615;28;20048;-81
2022/05/09 07:53:11;;;;;;;6.38;4.30;;;;;;;18.15;nan;102250.47;4996742;28;20040;-82
2022/05/09 07:55:39;;;;;;;7.13;4.53;;;;;;;18.40;nan;102253.38;4997786;28;20050;-80
2022/05/09 07:58:07;;;;;;;5.65;4.20;;;;;;;18.34;nan;102247.34;4980405;28;20050;-80
2022/05/09 08:00:35;;;;;;;6.85;4.72;;;;;;;18.26;nan;102245.75;4997188;28;20519;-81
2022/05/09 08:03:03;;;;;;;5.78;4.28;;;;;;;17.65;nan;102235.69;4992012;28;20413;-80
2022/05/09 08:05:32;;;;;;;6.50;3.90;;;;;;;18.17;nan;102237.09;4964448;28;20044;-80
2022/05/09 08:07:59;;;;;;;6.63;4.13;;;;;;;18.36;nan;102243.69;4987852;28;20060;-81
2022/05/09 08:10:26;;;;;;;7.03;4.20;;;;;;;18.50;nan;102244.19;4994025;28;20050;-80
2022/05/09 08:12:54;;;;;;;6.85;4.60;;;;;;;18.44;nan;102239.00;5006499;28;20046;-79
2022/05/09 08:15:21;;;;;;;6.43;4.18;;;;;;;18.61;nan;102240.31;5000949;28;20034;-80
2022/05/09 08:17:49;;;;;;;6.95;4.45;;;;;;;18.73;nan;102239.97;5010037;28;20052;-80
2022/05/09 08:20:17;;;;;;;5.72;4.35;;;;;;;18.33;nan;102237.53;4997411;28;20048;-79
2022/05/09 08:22:45;;;;;;;5.38;3.55;;;;;;;18.78;nan;102236.25;5010987;28;20052;-79
2022/05/09 08:25:14;;;;;;;7.22;4.43;;;;;;;19.06;nan;102227.38;4993999;28;20034;-80
2022/05/09 08:27:42;;;;;;;5.93;4.18;;;;;;;18.87;nan;102229.75;4989573;28;20046;-80
2022/05/09 08:30:09;;;;;;;5.53;3.70;;;;;;;18.90;nan;102236.81;4966032;28;20055;-81
2022/05/09 08:32:42;;;;;;;7.85;3.75;;;;;;;19.04;nan;102239.94;4994179;28;20042;-80
2022/05/09 08:35:10;;;;;;;5.53;3.90;;;;;;;19.25;nan;102241.06;4994308;28;20030;-79
2022/05/09 08:37:37;;;;;;;6.75;3.90;;;;;;;19.24;nan;102239.31;4993251;28;20053;-80
2022/05/09 08:40:05;;;;;;;6.70;3.70;;;;;;;19.39;nan;102241.53;5012890;28;20479;-79
2022/05/09 08:42:41;;;;;;;5.82;3.42;;;;;;;19.38;nan;102234.41;5007895;28;20054;-80
2022/05/09 08:45:37;;;;;;;7.65;3.85;;;;;;;19.59;nan;102238.22;4991758;28;20044;-80
2022/05/09 08:48:22;;;;;;;7.40;3.80;;;;;;;19.34;nan;102244.38;4984506;28;20054;-79
2022/05/09 08:51:30;;;;;;;5.90;3.35;;;;;;;19.77;nan;102236.75;5010998;28;20049;-81
2022/05/09 08:54:02;;;;;;;10.65;4.15;;;;;;;18.90;nan;102236.81;4985174;28;20042;-80
2022/05/09 08:56:33;;;;;;;5.88;3.97;;;;;;;19.19;nan;102230.56;4992555;28;20414;-83
2022/05/09 08:59:04;;;;;;;8.00;3.67;;;;;;;19.54;nan;102226.75;4991661;28;20045;-84
2022/05/09 09:01:33;;;;;;;26.00;5.50;;;;;;;19.46;nan;102242.19;4958808;28;20491;-80
2022/05/09 09:04:03;;;;;;;7.70;4.25;;;;;;;19.20;nan;102233.19;4965316;28;20034;-82
2022/05/09 09:06:41;;;;;;;4.30;3.05;;;;;;;19.30;nan;102226.59;4984476;28;20050;-84
2022/05/09 09:09:35;;;;;;;26.10;5.00;;;;;;;19.77;nan;102226.03;4989690;28;20049;-81
2022/05/09 09:12:35;;;;;;;7.07;3.55;;;;;;;19.46;nan;102232.34;4974623;28;20034;-81
2022/05/09 09:15:27;;;;;;;6.68;3.50;;;;;;;19.87;nan;102230.13;4991412;28;20045;-80
2022/05/09 09:18:03;;;;;;;5.35;2.95;;;;;;;19.77;nan;102229.59;4998314;28;20052;-78
2022/05/09 09:20:57;;;;;;;5.07;3.05;;;;;;;19.96;nan;102228.00;5010354;28;20049;-84
2022/05/09 09:23:49;;;;;;;5.78;3.25;;;;;;;19.78;nan;102227.78;4991642;28;20038;-80
2022/05/09 09:26:31;;;;;;;4.60;3.40;;;;;;;19.18;nan;102212.75;5002197;28;20046;-80
2022/05/09 09:29:15;;;;;;;6.68;3.50;;;;;;;18.44;nan;102216.72;4989272;28;20483;-81
2022/05/09 09:31:55;;;;;;;5.00;2.95;;;;;;;19.01;nan;102214.16;4988884;28;20109;-80
2022/05/09 09:34:33;;;;;;;4.40;2.83;;;;;;;19.66;nan;102210.28;4994103;28;20042;-80
2022/05/09 09:37:11;;;;;;;4.88;3.67;;;;;;;20.18;nan;102204.00;4978223;28;20033;-80
2022/05/09 09:39:38;;;;;;;3.63;2.72;;;;;;;20.39;nan;102199.63;4992342;28;20036;-80
2022/05/09 09:42:06;;;;;;;3.72;2.72;;;;;;;20.61;nan;102194.38;4993007;28;20067;-84
2022/05/09 09:44:38;;;;;;;4.95;2.80;;;;;;;20.79;nan;102201.72;4983769;28;20040;-81
2022/05/09 09:47:19;;;;;;;5.70;3.08;;;;;;;21.52;nan;102188.97;4990921;28;20121;-81
2022/05/09 09:50:22;;;;;;;8.52;3.35;;;;;;;20.36;nan;102188.16;5004433;28;20042;-83
2022/05/09 09:52:57;;;;;;;3.40;2.22;;;;;;;20.24;nan;102190.31;4972215;28;20034;-82
2022/05/09 09:55:32;;;;;;;5.68;2.40;;;;;;;20.79;nan;102185.63;4982275;28;20048;-83
2022/05/09 09:58:23;;;;;;;4.13;2.35;;;;;;;20.97;nan;102177.75;5029212;28;20490;-82
2022/05/09 10:01:12;;;;;;;4.03;2.65;;;;;;;21.24;nan;102173.94;4992601;28;20046;-82
2022/05/09 10:03:46;;;;;;;5.25;2.97;;;;;;;20.79;nan;102176.69;4980887;28;20044;-81
2022/05/09 10:06:21;;;;;;;4.05;2.60;;;;;;;20.52;nan;102174.13;4998392;28;20048;-82
2022/05/09 10:09:00;;;;;;;6.88;2.63;;;;;;;20.21;nan;102162.75;4991343;28;20068;-81
2022/05/09 10:11:29;;;;;;;6.45;2.67;;;;;;;20.96;nan;102155.41;5008713;28;20042;-81
2022/05/09 10:13:59;;;;;;;8.15;2.60;;;;;;;21.47;nan;102158.72;4983164;28;20046;-80
2022/05/09 10:16:33;;;;;;;8.63;3.28;;;;;;;21.42;nan;102155.34;4981070;28;20434;-80
2022/05/09 10:19:03;;;;;;;5.18;2.80;;;;;;;21.77;nan;102148.44;4977772;28;20050;-81
2022/05/09 10:27:28;;;;;;;6.60;2.45;;;;;;;22.44;nan;102146.31;5015071;28;20038;-82
2022/05/09 10:30:17;;;;;;;4.72;2.55;;;;;;;22.17;nan;102144.91;4997030;28;20414;-81
2022/05/09 10:32:51;;;;;;;4.93;2.80;;;;;;;21.79;nan;102146.59;4988612;28;20068;-81
2022/05/09 10:35:22;;;;;;;4.43;2.90;;;;;;;22.39;nan;102144.81;5006962;28;20044;-80
2022/05/09 10:38:02;;;;;;;4.32;3.15;;;;;;;21.49;nan;102143.41;4993276;28;20056;-82
2022/05/09 10:40:34;;;;;;;5.05;2.97;;;;;;;21.63;nan;102141.00;4979877;28;20045;-84
2022/05/09 10:43:22;;;;;;;5.10;3.00;;;;;;;21.47;nan;102148.84;4987426;28;20042;-82
2022/05/09 10:45:52;;;;;;;4.32;2.60;;;;;;;21.33;nan;102144.03;4991740;28;20038;-83
2022/05/09 10:48:26;;;;;;;4.15;2.65;;;;;;;21.39;nan;102144.72;5013530;28;20394;-80
2022/05/09 10:51:02;;;;;;;4.38;2.67;;;;;;;22.23;nan;102128.47;4980227;28;20033;-84
2022/05/09 10:53:44;;;;;;;4.45;2.67;;;;;;;22.58;nan;102131.34;4986926;28;20057;-80
2022/05/09 10:56:16;;;;;;;4.68;2.58;;;;;;;22.56;nan;102125.16;5004157;28;20037;-80
2022/05/09 10:59:04;;;;;;;6.47;3.33;;;;;;;23.09;nan;102121.69;4995349;28;20037;-80
2022/05/09 11:02:00;;;;;;;3.78;2.78;;;;;;;23.06;nan;102121.88;4992238;28;20117;-81
2022/05/09 11:04:29;;;;;;;4.78;2.88;;;;;;;;;;4994571;28;20043;-79
2022/05/09 11:07:08;;;;;;;7.10;3.00;;;;;;;22.32;nan;102111.03;4996079;28;20486;-86
2022/05/09 11:09:56;;;;;;;4.28;3.00;;;;;;;21.36;nan;102113.47;4995586;28;20418;-80
2022/05/09 11:12:59;;;;;;;5.32;3.38;;;;;;;21.13;nan;102109.03;5011479;28;20045;-80
2022/05/09 11:15:57;;;;;;;7.25;2.88;;;;;;;21.40;nan;102103.47;4972032;28;20046;-84
2022/05/09 11:18:52;;;;;;;4.95;3.10;;;;;;;21.32;nan;102104.66;5011053;28;20038;-83
2022/05/09 11:21:45;;;;;;;3.60;2.85;;;;;;;21.96;nan;102100.09;5010582;28;20034;-84
2022/05/09 11:24:33;;;;;;;3.72;2.83;;;;;;;22.35;nan;102087.50;4994432;28;20038;-82
2022/05/09 11:27:21;;;;;;;5.40;2.83;;;;;;;22.74;nan;102084.72;4986816;28;20049;-79
2022/05/09 11:30:26;;;;;;;6.07;2.90;;;;;;;21.92;nan;102085.88;5007633;28;20041;-82
2022/05/09 11:33:11;;;;;;;4.30;2.85;;;;;;;21.91;nan;102076.94;4996875;28;20034;-81
2022/05/09 11:35:39;;;;;;;5.65;2.92;;;;;;;22.09;nan;102069.00;5012842;28;20048;-81
2022/05/09 11:38:47;;;;;;;5.50;3.17;;;;;;;22.37;nan;102074.88;4976927;28;20048;-81
2022/05/09 11:41:29;;;;;;;3.65;2.67;;;;;;;22.51;nan;102073.31;5017564;28;20036;-81
2022/05/09 11:44:15;;;;;;;4.60;2.80;;;;;;;21.85;nan;102069.13;4978591;28;20056;-81
2022/05/09 11:47:14;;;;;;;3.60;2.55;;;;;;;21.88;nan;102071.72;4970524;28;20038;-81
2022/05/09 11:50:08;;;;;;;5.50;2.95;;;;;;;22.10;nan;102063.53;4976799;28;20096;-84
2022/05/09 11:52:42;;;;;;;4.32;3.00;;;;;;;22.40;nan;102061.25;4992799;28;20050;-83
2022/05/09 11:55:17;;;;;;;6.05;2.97;;;;;;;22.21;nan;102064.88;4970081;28;20038;-81
2022/05/09 11:57:48;;;;;;;3.40;2.58;;;;;;;22.40;nan;102063.94;5005955;28;20046;-81
2022/05/09 12:00:47;;;;;;;4.65;2.72;;;;;;;22.76;nan;102063.09;4978180;28;20438;-80
2022/05/09 12:03:15;;;;;;;7.43;3.13;;;;;;;22.69;nan;102062.50;4993845;28;20579;-82
2022/05/09 12:05:54;;;;;;;3.53;2.75;;;;;;;22.66;nan;102062.69;4962499;28;20044;-82
2022/05/09 12:08:22;;;;;;;6.80;2.70;;;;;;;22.72;nan;102054.31;4977364;28;20041;-82
2022/05/09 12:11:17;;;;;;;4.30;2.35;;;;;;;22.65;nan;102051.97;4977675;28;20400;-81
2022/05/09 12:13:50;;;;;;;2.95;1.98;;;;;;;22.65;nan;102041.19;5010566;28;20394;-81
2022/05/09 12:16:35;;;;;;;2.55;2.03;;;;;;;23.14;nan;102041.47;4961191;28;20044;-81